Time;durP1;ratioP1;P1;durP2;ratioP2;P2;SDS_P1;SDS_P2;PMS_P1;PMS_P2;Temp;Humidity;BMP_temperature;BMP_pressure;BME280_temperature;BME280_humidity;BME280_pressure;Samples;Min_cycle;Max_cycle;Signal;HPM_P1;HPM_P2
2021/04/07 00:01:38;;;;;;;4.78;1.08;;;5.30;85.90;;;;;;5005823;28;20026;-62
2021/04/07 00:04:05;;;;;;;4.97;1.27;;;5.40;86.00;;;;;;4999910;28;20053;-61
2021/04/07 00:06:34;;;;;;;2.75;1.42;;;5.40;86.30;;;;;;5001465;28;20057;-62
2021/04/07 00:09:01;;;;;;;3.75;1.30;;;5.40;86.40;;;;;;5007037;28;20073;-61
2021/04/07 00:11:26;;;;;;;1.60;1.05;;;5.40;86.60;;;;;;5005290;28;20574;-62
2021/04/07 00:13:52;;;;;;;10.10;1.45;;;5.50;86.50;;;;;;5007830;28;20042;-61
2021/04/07 00:16:18;;;;;;;4.10;1.75;;;5.40;86.80;;;;;;5002361;28;20555;-62
2021/04/07 00:18:43;;;;;;;2.95;1.50;;;5.40;85.90;;;;;;4995886;28;20525;-62
2021/04/07 00:21:09;;;;;;;6.63;1.90;;;5.30;86.60;;;;;;5002199;28;20035;-62
2021/04/07 00:23:34;;;;;;;2.97;1.50;;;5.20;86.60;;;;;;4995816;28;20026;-62
2021/04/07 00:26:00;;;;;;;5.20;2.10;;;5.30;86.70;;;;;;5002177;28;20105;-61
2021/04/07 00:28:26;;;;;;;3.78;1.52;;;5.10;87.20;;;;;;4995435;28;20038;-62
2021/04/07 00:30:51;;;;;;;4.70;2.00;;;5.10;87.70;;;;;;5002266;28;20026;-62
2021/04/07 00:33:17;;;;;;;3.58;1.80;;;5.00;87.10;;;;;;4994071;28;20125;-62
2021/04/07 00:35:43;;;;;;;4.45;1.73;;;5.00;87.60;;;;;;5003105;28;20038;-62
2021/04/07 00:38:13;;;;;;;5.57;1.50;;;4.90;88.00;;;;;;4993517;28;20099;-62
2021/04/07 00:40:39;;;;;;;3.90;1.83;;;5.10;87.80;;;;;;5002083;28;20029;-62
2021/04/07 00:43:05;;;;;;;2.75;1.67;;;4.90;87.90;;;;;;5011799;28;20029;-62
2021/04/07 00:45:31;;;;;;;7.25;1.60;;;5.10;88.00;;;;;;5004024;28;20029;-61
2021/04/07 00:47:57;;;;;;;4.75;1.70;;;4.80;88.00;;;;;;4993224;28;20029;-62
2021/04/07 00:50:25;;;;;;;2.63;1.27;;;5.00;88.10;;;;;;5001047;28;20526;-62
2021/04/07 00:52:51;;;;;;;4.63;1.90;;;4.80;88.50;;;;;;5012643;28;20671;-62
2021/04/07 00:55:22;;;;;;;2.88;1.50;;;5.00;88.10;;;;;;5004442;28;20033;-62
2021/04/07 00:57:49;;;;;;;3.97;1.50;;;5.00;88.50;;;;;;4993052;28;20512;-62
2021/04/07 01:00:15;;;;;;;3.08;1.73;;;4.90;88.40;;;;;;5003701;28;20042;-61
2021/04/07 01:02:41;;;;;;;5.43;1.58;;;4.80;88.40;;;;;;4992891;28;20026;-62
2021/04/07 01:05:09;;;;;;;5.40;1.92;;;4.90;89.20;;;;;;5005292;28;20486;-62
2021/04/07 01:07:35;;;;;;;8.20;2.00;;;4.90;89.70;;;;;;5003179;28;20530;-62
2021/04/07 01:10:01;;;;;;;3.88;1.60;;;4.90;90.40;;;;;;5001022;28;20073;-62
2021/04/07 01:12:27;;;;;;;3.78;1.60;;;4.80;90.40;;;;;;5003681;28;20486;-62
2021/04/07 01:14:53;;;;;;;3.42;1.80;;;4.90;90.70;;;;;;5005792;28;20042;-62
2021/04/07 01:17:19;;;;;;;2.88;2.03;;;4.80;90.70;;;;;;4994150;28;20080;-62
2021/04/07 01:19:45;;;;;;;4.25;1.60;;;4.90;90.70;;;;;;5002526;28;20609;-61
2021/04/07 01:22:14;;;;;;;4.03;1.80;;;5.00;91.20;;;;;;5011322;28;20022;-62
2021/04/07 01:24:40;;;;;;;4.38;1.65;;;4.80;91.30;;;;;;5006864;28;20087;-62
2021/04/07 01:27:06;;;;;;;5.53;1.75;;;4.70;91.40;;;;;;5011579;28;20477;-62
2021/04/07 01:29:33;;;;;;;3.92;1.67;;;4.70;91.50;;;;;;5009012;28;20034;-61
2021/04/07 01:31:58;;;;;;;4.65;1.63;;;4.70;91.50;;;;;;5008922;28;20022;-62
2021/04/07 01:34:26;;;;;;;4.35;1.83;;;4.50;91.20;;;;;;5004963;28;20395;-61
2021/04/07 01:36:53;;;;;;;9.20;1.80;;;4.50;90.60;;;;;;4996988;28;20029;-62
2021/04/07 01:39:20;;;;;;;5.07;2.10;;;4.50;90.30;;;;;;4996781;28;20593;-61
2021/04/07 01:41:46;;;;;;;3.75;1.50;;;4.60;90.10;;;;;;4998384;28;20515;-61
2021/04/07 01:44:15;;;;;;;5.78;1.70;;;4.60;89.80;;;;;;4995600;28;20073;-61
2021/04/07 01:46:41;;;;;;;3.55;1.83;;;4.60;90.30;;;;;;4998942;28;20121;-62
2021/04/07 01:49:09;;;;;;;2.78;1.42;;;4.60;90.00;;;;;;4994760;28;20604;-62
2021/04/07 01:51:35;;;;;;;3.17;1.80;;;4.50;89.90;;;;;;4999807;28;20380;-62
2021/04/07 01:54:06;;;;;;;2.78;1.30;;;4.50;90.00;;;;;;4994032;28;20039;-62
2021/04/07 01:56:32;;;;;;;3.60;1.80;;;4.50;90.30;;;;;;5003747;28;20031;-61
2021/04/07 01:59:01;;;;;;;4.10;1.80;;;4.50;90.60;;;;;;5005424;28;20519;-61
2021/04/07 02:01:27;;;;;;;3.28;1.20;;;4.50;90.90;;;;;;5002770;28;20029;-62
2021/04/07 02:03:53;;;;;;;3.92;1.60;;;4.50;91.40;;;;;;5006264;28;20077;-62
2021/04/07 02:06:19;;;;;;;3.90;1.40;;;4.50;91.20;;;;;;4999899;28;20515;-61
2021/04/07 02:08:45;;;;;;;5.00;1.75;;;4.40;91.60;;;;;;4994030;28;20045;-62
2021/04/07 02:11:10;;;;;;;3.67;1.58;;;4.40;91.70;;;;;;5000397;28;20101;-61
2021/04/07 02:13:36;;;;;;;2.75;1.67;;;4.40;91.80;;;;;;4993791;28;20056;-61
2021/04/07 02:16:09;;;;;;;3.65;1.70;;;4.30;92.10;;;;;;5000126;28;20519;-62
2021/04/07 02:18:35;;;;;;;4.47;1.55;;;4.20;92.10;;;;;;4993674;28;20017;-62
2021/04/07 02:21:01;;;;;;;5.70;1.70;;;4.10;92.30;;;;;;4999929;28;20092;-62
2021/04/07 02:23:26;;;;;;;4.40;1.65;;;4.00;92.20;;;;;;4992861;28;20026;-62
2021/04/07 02:25:52;;;;;;;5.40;1.98;;;4.10;92.10;;;;;;5000141;28;20435;-62
2021/04/07 02:28:17;;;;;;;4.10;1.50;;;4.10;92.10;;;;;;4991796;28;20503;-61
2021/04/07 02:30:43;;;;;;;5.65;1.33;;;4.30;92.20;;;;;;5001424;28;20018;-62
2021/04/07 02:33:09;;;;;;;2.97;1.48;;;4.20;92.50;;;;;;4991225;28;20084;-63
2021/04/07 02:35:34;;;;;;;3.58;1.45;;;4.20;92.60;;;;;;5001775;28;20034;-62
2021/04/07 02:38:00;;;;;;;3.20;1.70;;;4.30;92.80;;;;;;4990795;28;20491;-62
2021/04/07 02:40:26;;;;;;;4.13;1.52;;;4.30;92.40;;;;;;5002448;28;20485;-62
2021/04/07 02:42:51;;;;;;;5.10;1.60;;;4.20;92.70;;;;;;4991124;28;20486;-62
2021/04/07 02:45:17;;;;;;;7.40;2.00;;;4.10;92.90;;;;;;5001752;28;20029;-62
2021/04/07 02:47:42;;;;;;;3.83;1.40;;;4.20;93.00;;;;;;4991121;28;20365;-62
2021/04/07 02:50:09;;;;;;;3.58;1.70;;;4.30;92.90;;;;;;5005740;28;20506;-62
2021/04/07 02:52:34;;;;;;;4.47;1.55;;;4.30;93.00;;;;;;5009858;28;20422;-62
2021/04/07 02:55:00;;;;;;;4.20;1.42;;;4.30;93.10;;;;;;5003833;28;20048;-62
2021/04/07 02:57:25;;;;;;;3.85;1.67;;;4.30;92.90;;;;;;4991425;28;20038;-62
2021/04/07 02:59:51;;;;;;;4.32;1.95;;;4.40;93.20;;;;;;4999523;28;20087;-62
2021/04/07 03:02:17;;;;;;;3.45;1.58;;;4.40;93.50;;;;;;4992565;28;20085;-62
2021/04/07 03:04:42;;;;;;;3.42;1.83;;;4.40;93.20;;;;;;4998234;28;20084;-62
2021/04/07 03:07:08;;;;;;;5.80;1.88;;;4.40;93.60;;;;;;5004598;28;20046;-62
2021/04/07 03:09:34;;;;;;;3.78;1.50;;;4.50;93.50;;;;;;5003707;28;20025;-62
2021/04/07 03:11:59;;;;;;;5.75;2.00;;;4.40;93.80;;;;;;5005572;28;20038;-62
2021/04/07 03:14:25;;;;;;;4.40;1.67;;;4.40;93.80;;;;;;5006831;28;20699;-63
2021/04/07 03:16:51;;;;;;;6.65;2.20;;;4.50;93.90;;;;;;5009579;28;20061;-62
2021/04/07 03:19:16;;;;;;;7.95;2.53;;;4.60;94.00;;;;;;5003549;28;20022;-62
2021/04/07 03:21:42;;;;;;;6.60;2.85;;;4.40;93.70;;;;;;4997091;28;20037;-62
2021/04/07 03:24:08;;;;;;;3.60;2.40;;;4.50;94.00;;;;;;4993297;28;20018;-62
2021/04/07 03:26:34;;;;;;;11.13;3.25;;;4.30;94.00;;;;;;5007638;28;20029;-62
2021/04/07 03:29:00;;;;;;;6.50;3.47;;;4.40;94.00;;;;;;5007115;28;20026;-62
2021/04/07 03:31:25;;;;;;;9.13;3.67;;;4.30;93.90;;;;;;5000936;28;20085;-62
2021/04/07 03:33:51;;;;;;;6.80;3.35;;;4.40;94.00;;;;;;4998544;28;21019;-62
2021/04/07 03:36:16;;;;;;;5.97;3.67;;;4.40;94.00;;;;;;4998371;28;20049;-62
2021/04/07 03:38:42;;;;;;;11.15;3.65;;;4.30;94.10;;;;;;4992672;28;20026;-62
2021/04/07 03:41:08;;;;;;;5.82;3.45;;;4.30;93.90;;;;;;4998863;28;20030;-62
2021/04/07 03:43:33;;;;;;;8.07;3.00;;;4.30;94.30;;;;;;4991896;28;20065;-62
2021/04/07 03:45:59;;;;;;;6.70;2.22;;;4.40;94.30;;;;;;4998837;28;20023;-62
2021/04/07 03:48:30;;;;;;;5.90;2.80;;;4.30;94.20;;;;;;4991573;28;20556;-62
2021/04/07 03:50:57;;;;;;;8.13;3.22;;;4.30;94.10;;;;;;4998597;28;20518;-62
2021/04/07 03:53:22;;;;;;;7.38;3.28;;;4.20;94.50;;;;;;4991178;28;20030;-62
2021/04/07 03:55:50;;;;;;;9.90;2.00;;;4.30;94.60;;;;;;4999714;28;20037;-62
2021/04/07 03:58:16;;;;;;;3.85;1.83;;;4.10;94.60;;;;;;4990109;28;20407;-62
2021/04/07 04:00:43;;;;;;;4.40;2.10;;;4.10;94.60;;;;;;5000588;28;20031;-62
2021/04/07 04:03:09;;;;;;;4.65;1.98;;;4.10;94.60;;;;;;4990286;28;20054;-62
2021/04/07 04:05:35;;;;;;;6.90;1.60;;;4.10;94.90;;;;;;5000457;28;20030;-62
2021/04/07 04:08:01;;;;;;;5.57;1.80;;;4.10;95.00;;;;;;4989551;28;20018;-62
2021/04/07 04:10:27;;;;;;;6.13;1.90;;;4.00;95.00;;;;;;4997989;28;20038;-63
2021/04/07 04:12:54;;;;;;;3.25;2.00;;;4.00;95.30;;;;;;5009640;28;20022;-63
2021/04/07 04:15:20;;;;;;;3.88;2.00;;;4.10;95.80;;;;;;5001490;28;20514;-63
2021/04/07 04:17:46;;;;;;;6.25;2.35;;;4.10;95.80;;;;;;4989991;28;20404;-63
2021/04/07 04:20:12;;;;;;;2.45;1.52;;;4.00;95.50;;;;;;5000622;28;20088;-63
2021/04/07 04:22:38;;;;;;;3.63;2.08;;;4.10;95.60;;;;;;4989741;28;20023;-63
2021/04/07 04:25:05;;;;;;;5.72;2.13;;;4.00;95.60;;;;;;4999911;28;20026;-63
2021/04/07 04:27:31;;;;;;;3.92;2.20;;;3.90;95.80;;;;;;4990038;28;20034;-63
2021/04/07 04:29:57;;;;;;;4.13;2.00;;;3.60;96.00;;;;;;4999120;28;20041;-63
2021/04/07 04:32:22;;;;;;;4.07;2.00;;;3.70;96.70;;;;;;4991198;28;20041;-63
2021/04/07 04:34:48;;;;;;;5.80;2.25;;;3.60;97.10;;;;;;4997620;28;20046;-63
2021/04/07 04:37:14;;;;;;;6.65;2.50;;;3.40;97.00;;;;;;4992336;28;20026;-63
2021/04/07 04:39:39;;;;;;;3.67;1.95;;;3.50;97.10;;;;;;4996607;28;20636;-63
2021/04/07 04:42:06;;;;;;;4.00;2.47;;;3.40;96.90;;;;;;4993716;28;20447;-63
2021/04/07 04:44:31;;;;;;;4.03;2.28;;;3.40;97.00;;;;;;4995510;28;20034;-63
2021/04/07 04:46:57;;;;;;;5.72;1.73;;;3.20;97.20;;;;;;4997625;28;20069;-62
2021/04/07 04:49:23;;;;;;;4.75;1.80;;;3.20;97.40;;;;;;5012431;28;20026;-63
2021/04/07 04:51:48;;;;;;;4.68;1.92;;;3.30;96.50;;;;;;4999250;28;20471;-62
2021/04/07 04:54:15;;;;;;;3.70;2.05;;;3.20;97.00;;;;;;4996522;28;20042;-62
2021/04/07 04:56:41;;;;;;;6.15;2.60;;;3.10;97.10;;;;;;5012245;28;20410;-62
2021/04/07 04:59:07;;;;;;;3.15;1.90;;;3.00;97.10;;;;;;5006243;28;20023;-62
2021/04/07 05:01:34;;;;;;;4.38;2.05;;;3.20;97.10;;;;;;5016255;28;20030;-63
2021/04/07 05:04:01;;;;;;;5.30;2.35;;;3.10;97.00;;;;;;4995182;28;20093;-62
2021/04/07 05:06:27;;;;;;;2.78;1.63;;;3.20;96.70;;;;;;5011123;28;20139;-64
2021/04/07 05:08:53;;;;;;;5.43;1.77;;;3.20;96.70;;;;;;5010184;28;20423;-62
2021/04/07 05:11:19;;;;;;;5.80;1.90;;;3.10;97.10;;;;;;5003154;28;20034;-62
2021/04/07 05:13:44;;;;;;;3.17;1.65;;;3.20;97.50;;;;;;4994814;28;20494;-62
2021/04/07 05:16:10;;;;;;;4.35;1.95;;;3.10;97.40;;;;;;5001362;28;20478;-61
2021/04/07 05:18:35;;;;;;;5.88;2.70;;;3.20;97.50;;;;;;4995057;28;20400;-62
2021/04/07 05:21:01;;;;;;;6.15;1.88;;;3.20;97.10;;;;;;5001074;28;20023;-62
2021/04/07 05:23:27;;;;;;;4.65;2.45;;;2.80;97.30;;;;;;4998289;28;20029;-62
2021/04/07 05:25:53;;;;;;;3.40;2.25;;;3.80;99.40;;;;;;5011448;28;20099;-61
2021/04/07 05:28:19;;;;;;;6.43;2.00;;;3.40;99.20;;;;;;5009104;28;20018;-62
2021/04/07 05:31:02;;;;;;;6.15;2.50;;;3.00;99.90;;;;;;5010904;28;20029;-61
2021/04/07 05:33:34;;;;;;;4.10;2.30;;;3.00;99.90;;;;;;5006892;28;20624;-61
2021/04/07 05:36:03;;;;;;;5.03;2.17;;;3.20;99.90;;;;;;5008917;28;20037;-62
2021/04/07 05:38:29;;;;;;;4.38;2.15;;;2.80;99.90;;;;;;5008848;28;20018;-62
2021/04/07 05:40:57;;;;;;;8.60;2.35;;;2.70;99.90;;;;;;5010688;28;20026;-62
2021/04/07 05:43:23;;;;;;;16.52;2.78;;;2.90;99.90;;;;;;5009728;28;20069;-62
2021/04/07 05:45:49;;;;;;;58.38;4.95;;;2.70;99.90;;;;;;5010239;28;20526;-62
2021/04/07 05:48:15;;;;;;;50.80;3.80;;;2.50;99.90;;;;;;5009648;28;20105;-62
2021/04/07 05:50:43;;;;;;;54.72;4.15;;;2.50;99.90;;;;;;5010181;28;20033;-61
2021/04/07 05:53:09;;;;;;;44.22;4.95;;;2.60;99.90;;;;;;5010249;28;20018;-62
2021/04/07 05:55:36;;;;;;;42.08;4.20;;;2.70;99.90;;;;;;5011008;28;20030;-62
2021/04/07 05:58:06;;;;;;;18.52;3.00;;;2.70;99.90;;;;;;5009493;28;20026;-62
2021/04/07 06:00:33;;;;;;;23.85;3.65;;;2.80;99.90;;;;;;5009757;28;20037;-61
2021/04/07 06:03:00;;;;;;;23.30;2.85;;;2.60;99.90;;;;;;5010960;28;20265;-62
2021/04/07 06:05:29;;;;;;;8.10;3.58;;;2.60;99.90;;;;;;5009033;28;20030;-62
2021/04/07 06:07:57;;;;;;;12.07;2.67;;;2.70;99.90;;;;;;5011556;28;20033;-62
2021/04/07 06:10:24;;;;;;;5.68;2.70;;;2.80;99.90;;;;;;5003078;28;20060;-61
2021/04/07 06:12:50;;;;;;;13.57;2.63;;;2.80;99.90;;;;;;4991936;28;20050;-62
2021/04/07 06:15:16;;;;;;;16.50;3.22;;;2.90;99.90;;;;;;5002430;28;20080;-61
2021/04/07 06:17:51;;;;;;;11.43;2.65;;;2.80;99.90;;;;;;4997280;28;20029;-62
2021/04/07 06:20:17;;;;;;;5.93;3.00;;;3.00;99.90;;;;;;5002772;28;20057;-61
2021/04/07 06:22:42;;;;;;;5.20;2.55;;;3.00;99.90;;;;;;4991528;28;20057;-62
2021/04/07 06:25:08;;;;;;;5.75;2.63;;;3.00;99.90;;;;;;5001979;28;20557;-62
2021/04/07 06:27:34;;;;;;;7.88;2.58;;;3.10;99.90;;;;;;4991700;28;20034;-61
2021/04/07 06:30:00;;;;;;;6.35;2.70;;;2.90;99.90;;;;;;5000732;28;20079;-62
2021/04/07 06:32:29;;;;;;;7.50;2.80;;;3.20;99.90;;;;;;4992844;28;20050;-61
2021/04/07 06:34:55;;;;;;;6.88;3.15;;;3.30;99.50;;;;;;5006697;28;20030;-62
2021/04/07 06:37:21;;;;;;;3.83;3.00;;;3.30;99.30;;;;;;5010321;28;20094;-62
2021/04/07 06:39:47;;;;;;;6.00;2.78;;;3.40;98.60;;;;;;5007636;28;20514;-61
2021/04/07 06:42:15;;;;;;;6.63;2.83;;;3.60;98.60;;;;;;5010716;28;20049;-62
2021/04/07 06:44:41;;;;;;;5.18;3.00;;;3.60;98.20;;;;;;5007276;28;20037;-61
2021/04/07 06:47:07;;;;;;;8.00;2.83;;;3.60;98.10;;;;;;5010009;28;20022;-62
2021/04/07 06:49:33;;;;;;;8.35;2.75;;;3.60;97.30;;;;;;5008505;28;20105;-62
2021/04/07 06:52:02;;;;;;;5.78;2.58;;;3.70;96.60;;;;;;5009664;28;20471;-62
2021/04/07 06:54:28;;;;;;;5.22;2.28;;;3.70;96.30;;;;;;5007357;28;20046;-62
2021/04/07 06:56:55;;;;;;;7.03;3.10;;;3.90;96.70;;;;;;5007168;28;20419;-62
2021/04/07 06:59:21;;;;;;;5.72;3.03;;;4.20;97.10;;;;;;5007559;28;20435;-63
2021/04/07 07:01:47;;;;;;;6.28;2.80;;;4.20;96.90;;;;;;5009935;28;20071;-62
2021/04/07 07:04:13;;;;;;;4.07;2.63;;;4.20;96.50;;;;;;5007873;28;20109;-62
2021/04/07 07:06:38;;;;;;;5.60;2.38;;;4.20;95.70;;;;;;5009491;28;20052;-61
2021/04/07 07:09:18;;;;;;;10.43;2.60;;;4.20;95.50;;;;;;5004390;28;20026;-62
2021/04/07 07:11:46;;;;;;;9.05;2.53;;;4.40;96.10;;;;;;5002793;28;20024;-64
2021/04/07 07:14:13;;;;;;;9.45;2.33;;;4.60;96.50;;;;;;5003208;28;20427;-64
2021/04/07 07:16:47;;;;;;;9.48;2.65;;;4.70;96.70;;;;;;4997844;28;20029;-64
2021/04/07 07:19:28;;;;;;;9.35;2.85;;;4.70;95.60;;;;;;4993191;28;20022;-64
2021/04/07 07:22:00;;;;;;;4.50;2.42;;;5.00;95.40;;;;;;4996107;28;20022;-64
2021/04/07 07:24:34;;;;;;;6.38;2.50;;;5.00;94.70;;;;;;4995250;28;20113;-64
2021/04/07 07:27:08;;;;;;;3.28;2.50;;;5.10;95.30;;;;;;5010317;28;20415;-64
2021/04/07 07:29:36;;;;;;;7.10;2.38;;;5.20;94.50;;;;;;4996021;28;20115;-58
2021/04/07 07:32:11;;;;;;;9.77;2.90;;;5.40;99.90;;;;;;4995196;28;20558;-64
2021/04/07 07:34:37;;;;;;;4.25;2.20;;;6.00;95.10;;;;;;4996308;28;20444;-64
2021/04/07 07:37:05;;;;;;;4.70;2.85;;;5.70;95.10;;;;;;4994840;28;20022;-64
2021/04/07 07:39:33;;;;;;;8.00;2.20;;;5.60;93.90;;;;;;4995621;28;20053;-64
2021/04/07 07:42:09;;;;;;;5.80;2.75;;;5.50;93.30;;;;;;5010604;28;20027;-64
2021/04/07 07:44:37;;;;;;;4.55;2.50;;;5.70;93.50;;;;;;4998474;28;20030;-64
2021/04/07 07:47:21;;;;;;;10.57;2.60;;;5.60;93.00;;;;;;5007151;28;20073;-63
2021/04/07 07:50:04;;;;;;;7.60;2.67;;;5.80;93.10;;;;;;4995182;28;20141;-63
2021/04/07 07:52:32;;;;;;;6.10;2.20;;;5.80;92.60;;;;;;5008121;28;20037;-63
2021/04/07 07:54:59;;;;;;;6.88;2.67;;;6.00;93.20;;;;;;5009258;28;20406;-64
2021/04/07 07:57:25;;;;;;;6.03;2.72;;;6.00;93.10;;;;;;5007740;28;20057;-64
2021/04/07 07:59:56;;;;;;;40.58;4.57;;;6.30;93.50;;;;;;5000961;28;20581;-62
2021/04/07 08:02:26;;;;;;;11.25;2.50;;;6.60;95.40;;;;;;4991857;28;20027;-63
2021/04/07 08:04:52;;;;;;;5.43;2.17;;;6.70;92.80;;;;;;4998146;28;20667;-64
2021/04/07 08:07:17;;;;;;;15.02;2.85;;;6.40;91.60;;;;;;4992327;28;20046;-64
2021/04/07 08:09:43;;;;;;;13.52;2.20;;;6.40;91.70;;;;;;4996920;28;20117;-64
2021/04/07 08:12:10;;;;;;;22.65;2.85;;;6.40;92.30;;;;;;4993839;28;20061;-64
2021/04/07 08:14:40;;;;;;;8.63;2.20;;;6.60;92.30;;;;;;4995994;28;20617;-65
2021/04/07 08:17:06;;;;;;;25.95;2.60;;;7.00;91.90;;;;;;4994352;28;20030;-64
2021/04/07 08:19:35;;;;;;;5.82;2.17;;;6.90;91.70;;;;;;4995341;28;20046;-63
2021/04/07 08:22:03;;;;;;;6.70;2.17;;;6.80;91.30;;;;;;4998231;28;20038;-63
2021/04/07 08:24:30;;;;;;;3.40;1.80;;;6.90;91.60;;;;;;4998811;28;20032;-63
2021/04/07 08:26:57;;;;;;;5.53;1.42;;;7.10;91.90;;;;;;4999490;28;20506;-63
2021/04/07 08:29:23;;;;;;;4.88;1.95;;;7.50;92.80;;;;;;4997850;28;20026;-63
2021/04/07 08:31:50;;;;;;;4.82;1.90;;;7.40;91.60;;;;;;5000298;28;20390;-63
2021/04/07 08:34:18;;;;;;;4.78;1.63;;;7.10;90.60;;;;;;4996606;28;20030;-63
2021/04/07 08:36:44;;;;;;;7.38;1.83;;;7.00;90.20;;;;;;5000707;28;20128;-64
2021/04/07 08:39:18;;;;;;;6.53;1.55;;;7.50;91.40;;;;;;4995640;28;20022;-63
2021/04/07 08:41:48;;;;;;;7.78;1.38;;;7.40;90.90;;;;;;5014067;28;20032;-63
2021/04/07 08:44:16;;;;;;;3.00;1.63;;;7.80;91.10;;;;;;5010208;28;20026;-63
2021/04/07 08:46:52;;;;;;;6.03;1.45;;;7.80;91.10;;;;;;5012412;28;20521;-64
2021/04/07 08:49:41;;;;;;;14.73;2.23;;;7.50;88.90;;;;;;5010316;28;20026;-63
2021/04/07 08:52:22;;;;;;;20.77;3.08;;;7.60;91.00;;;;;;5012193;28;20265;-63
2021/04/07 08:54:56;;;;;;;24.38;2.60;;;8.00;91.50;;;;;;5008809;28;20508;-63
2021/04/07 08:57:33;;;;;;;3.53;1.60;;;8.00;90.50;;;;;;5006757;28;20037;-63
2021/04/07 09:00:01;;;;;;;5.03;1.60;;;8.00;90.10;;;;;;5002031;28;20030;-63
2021/04/07 09:02:27;;;;;;;5.18;1.70;;;8.10;90.90;;;;;;4998048;28;20014;-63
2021/04/07 09:05:04;;;;;;;3.47;1.48;;;8.10;90.10;;;;;;5005841;28;20029;-63
2021/04/07 09:07:43;;;;;;;4.05;1.77;;;8.00;90.10;;;;;;4993801;28;20042;-63
2021/04/07 09:10:14;;;;;;;7.18;1.60;;;8.20;88.70;;;;;;5003114;28;20030;-64
2021/04/07 09:12:41;;;;;;;7.68;1.50;;;8.40;91.00;;;;;;4992949;28;20030;-64
2021/04/07 09:15:27;;;;;;;4.10;2.38;;;8.90;90.80;;;;;;5002733;28;20042;-63
2021/04/07 09:17:55;;;;;;;13.95;1.85;;;8.50;87.10;;;;;;4992973;28;20022;-63
2021/04/07 09:20:45;;;;;;;28.00;3.88;;;8.80;88.90;;;;;;5003357;28;20030;-63
2021/04/07 09:23:17;;;;;;;19.90;3.55;;;8.90;90.30;;;;;;4991793;28;20046;-63
2021/04/07 09:25:55;;;;;;;15.60;2.30;;;9.20;89.70;;;;;;5003424;28;20085;-63
2021/04/07 09:28:54;;;;;;;5.57;1.70;;;9.40;89.80;;;;;;4998513;28;20034;-63
2021/04/07 09:31:39;;;;;;;13.55;2.05;;;9.30;90.20;;;;;;5001390;28;20046;-64
2021/04/07 09:34:05;;;;;;;13.65;1.75;;;9.30;89.80;;;;;;5001895;28;20045;-62
2021/04/07 09:36:36;;;;;;;4.45;1.80;;;9.50;87.90;;;;;;5004843;28;20093;-62
2021/04/07 09:39:13;;;;;;;10.70;1.30;;;9.80;89.40;;;;;;5005510;28;20468;-62
2021/04/07 09:41:42;;;;;;;7.00;2.00;;;9.80;89.00;;;;;;5003710;28;20021;-63
2021/04/07 09:44:09;;;;;;;2.80;1.30;;;9.60;85.80;;;;;;5005952;28;20048;-62
2021/04/07 09:46:36;;;;;;;4.43;1.90;;;9.50;86.10;;;;;;5000945;28;20423;-62
2021/04/07 09:49:10;;;;;;;6.20;1.90;;;9.30;84.70;;;;;;4994637;28;20030;-63
2021/04/07 09:51:48;;;;;;;4.65;1.65;;;9.30;84.50;;;;;;5003034;28;20113;-62
2021/04/07 09:54:37;;;;;;;2.67;1.33;;;9.60;86.20;;;;;;5005274;28;20554;-62
2021/04/07 09:57:06;;;;;;;6.43;1.38;;;10.00;84.60;;;;;;4997393;28;20027;-62
2021/04/07 09:59:41;;;;;;;10.20;2.17;;;10.20;84.60;;;;;;4997137;28;20624;-62
2021/04/07 10:02:09;;;;;;;3.97;1.52;;;10.50;85.50;;;;;;4996323;28;20532;-63
2021/04/07 10:04:37;;;;;;;3.72;1.70;;;10.10;84.10;;;;;;4997486;28;20026;-62
2021/04/07 10:07:26;;;;;;;3.75;1.33;;;10.00;82.60;;;;;;4996601;28;20042;-62
2021/04/07 10:09:52;;;;;;;6.95;1.48;;;10.00;84.30;;;;;;4999538;28;20501;-63
2021/04/07 10:12:20;;;;;;;5.38;1.85;;;10.10;84.30;;;;;;4994752;28;20019;-62
2021/04/07 10:14:53;;;;;;;4.03;1.60;;;9.70;84.60;;;;;;4998613;28;20058;-62
2021/04/07 10:17:20;;;;;;;6.00;1.73;;;9.90;82.90;;;;;;4994410;28;20018;-62
2021/04/07 10:19:48;;;;;;;2.58;1.63;;;10.20;86.50;;;;;;4998720;28;20026;-62
2021/04/07 10:22:24;;;;;;;3.40;1.45;;;10.60;82.60;;;;;;4995169;28;20029;-62
2021/04/07 10:24:54;;;;;;;2.72;1.80;;;10.00;81.80;;;;;;4999151;28;20045;-62
2021/04/07 10:27:21;;;;;;;5.65;1.65;;;10.50;81.90;;;;;;4994156;28;20037;-62
2021/04/07 10:29:48;;;;;;;6.20;2.00;;;11.00;84.80;;;;;;4998622;28;20446;-62
2021/04/07 10:32:19;;;;;;;3.70;1.80;;;11.00;82.20;;;;;;4994984;28;20503;-63
2021/04/07 10:34:46;;;;;;;4.50;1.95;;;11.00;82.40;;;;;;4998170;28;20069;-63
2021/04/07 10:37:16;;;;;;;4.10;1.58;;;11.30;83.70;;;;;;4994962;28;20027;-63
2021/04/07 10:39:42;;;;;;;5.03;1.75;;;12.00;81.70;;;;;;4997674;28;20030;-62
2021/04/07 10:42:18;;;;;;;2.70;1.70;;;11.20;82.20;;;;;;4995439;28;20026;-66
2021/04/07 10:44:56;;;;;;;4.18;1.88;;;11.70;82.60;;;;;;4997039;28;20029;-68
2021/04/07 10:47:22;;;;;;;6.00;1.60;;;10.30;79.70;;;;;;4992964;28;20122;-68
2021/04/07 10:49:58;;;;;;;3.45;1.33;;;10.00;78.80;;;;;;4998102;28;20525;-68
2021/04/07 10:52:36;;;;;;;4.55;1.30;;;10.20;79.20;;;;;;4993372;28;20026;-68
2021/04/07 10:55:06;;;;;;;5.38;1.50;;;11.30;79.70;;;;;;5000154;28;20042;-68
2021/04/07 10:57:37;;;;;;;2.95;1.30;;;11.80;79.30;;;;;;4992305;28;20029;-68
2021/04/07 11:00:23;;;;;;;1.77;1.05;;;11.90;79.40;;;;;;5000476;28;20061;-68
2021/04/07 11:02:49;;;;;;;3.17;1.40;;;11.40;78.80;;;;;;4991155;28;20068;-69
2021/04/07 11:05:17;;;;;;;18.52;1.95;;;12.30;79.60;;;;;;5001636;28;20030;-69
2021/04/07 11:07:43;;;;;;;5.93;1.27;;;12.90;78.90;;;;;;4990901;28;20521;-69
2021/04/07 11:10:13;;;;;;;6.70;1.40;;;12.60;76.30;;;;;;5001002;28;20026;-69
2021/04/07 11:12:42;;;;;;;1.98;1.00;;;12.30;75.80;;;;;;4991112;28;20114;-69
2021/04/07 11:15:09;;;;;;;2.92;1.17;;;12.00;75.30;;;;;;5000586;28;20034;-69
2021/04/07 11:17:52;;;;;;;2.47;0.73;;;12.30;75.40;;;;;;4991444;28;20022;-69
2021/04/07 11:20:18;;;;;;;2.90;0.80;;;12.20;72.00;;;;;;5000653;28;20030;-68
2021/04/07 11:22:44;;;;;;;2.25;0.77;;;12.90;72.40;;;;;;4991117;28;20022;-69
2021/04/07 11:25:10;;;;;;;4.65;1.27;;;12.70;72.30;;;;;;5007321;28;20030;-69
2021/04/07 11:27:36;;;;;;;4.40;1.20;;;12.70;72.80;;;;;;5009194;28;20025;-68
2021/04/07 11:30:06;;;;;;;2.33;1.00;;;12.90;73.10;;;;;;5009008;28;20030;-68
2021/04/07 11:32:36;;;;;;;1.85;0.75;;;13.30;75.40;;;;;;5009096;28;20026;-69
2021/04/07 11:35:13;;;;;;;3.97;1.30;;;13.90;73.80;;;;;;5006758;28;20030;-69
2021/04/07 11:40:31;;;;;;;2.20;1.02;;;14.10;71.00;;;;;;5007107;28;20057;-69
2021/04/07 11:43:21;;;;;;;3.60;1.20;;;13.50;70.30;;;;;;5008468;28;20045;-69
2021/04/07 11:45:43;;;;;;;4.95;1.52;;;14.10;74.00;;;;;;5008476;28;20046;-69
2021/04/07 11:48:09;;;;;;;4.18;1.27;;;14.00;71.00;;;;;;5009365;28;20022;-69
2021/04/07 11:50:35;;;;;;;12.93;1.63;;;14.20;72.80;;;;;;5008341;28;20038;-68
2021/04/07 11:53:00;;;;;;;20.40;2.80;;;14.60;72.60;;;;;;5009234;28;20076;-69
2021/04/07 11:55:26;;;;;;;6.78;1.73;;;14.80;72.00;;;;;;5003854;28;20041;-70
2021/04/07 11:57:51;;;;;;;15.10;2.15;;;14.40;72.60;;;;;;5013620;28;20482;-69
2021/04/07 12:00:18;;;;;;;3.90;1.15;;;14.30;71.30;;;;;;5007124;28;20061;-69
2021/04/07 12:02:45;;;;;;;2.38;1.10;;;14.30;70.60;;;;;;4994198;28;20023;-69
2021/04/07 12:05:13;;;;;;;2.17;1.20;;;15.20;70.80;;;;;;5007649;28;20108;-69
2021/04/07 12:07:39;;;;;;;1.90;1.27;;;14.90;71.10;;;;;;5013325;28;20041;-69
2021/04/07 12:10:22;;;;;;;6.20;1.40;;;14.30;71.20;;;;;;5006761;28;20026;-69
2021/04/07 12:12:48;;;;;;;4.13;1.30;;;14.30;69.20;;;;;;4993515;28;20049;-69
2021/04/07 12:15:15;;;;;;;6.95;1.20;;;14.90;68.50;;;;;;5004286;28;20472;-69
2021/04/07 12:17:41;;;;;;;3.33;0.98;;;14.60;68.60;;;;;;4994132;28;20072;-68
2021/04/07 12:20:07;;;;;;;5.13;1.38;;;13.30;67.20;;;;;;5003485;28;20073;-68
2021/04/07 12:22:33;;;;;;;2.90;1.35;;;14.50;68.60;;;;;;4995132;28;20023;-68
2021/04/07 12:24:58;;;;;;;1.77;1.33;;;14.50;67.10;;;;;;5002871;28;20076;-69
2021/04/07 12:27:24;;;;;;;4.47;1.27;;;14.30;67.40;;;;;;5013258;28;20240;-68
2021/04/07 12:29:50;;;;;;;8.85;1.02;;;14.50;66.60;;;;;;5010460;28;20141;-68
2021/04/07 12:32:16;;;;;;;3.08;1.13;;;14.70;67.50;;;;;;5012667;28;20029;-69
2021/04/07 12:34:43;;;;;;;1.90;1.15;;;14.90;68.50;;;;;;5006365;28;20056;-68
2021/04/07 12:37:09;;;;;;;33.53;2.65;;;15.10;69.30;;;;;;4997895;28;20117;-68
2021/04/07 12:39:35;;;;;;;41.58;2.83;;;15.60;69.20;;;;;;4998318;28;20120;-68
2021/04/07 12:42:02;;;;;;;6.30;1.20;;;16.00;67.10;;;;;;4999011;28;20026;-68
2021/04/07 12:44:28;;;;;;;1.58;1.13;;;15.80;64.30;;;;;;4997582;28;20026;-69
2021/04/07 12:46:53;;;;;;;3.63;1.27;;;15.90;68.50;;;;;;5001394;28;20034;-67
2021/04/07 12:49:19;;;;;;;2.03;1.30;;;16.40;64.60;;;;;;5006374;28;20038;-69
2021/04/07 12:51:45;;;;;;;2.50;1.52;;;15.80;65.00;;;;;;5001473;28;20549;-69
2021/04/07 12:54:13;;;;;;;1.80;1.10;;;15.80;64.30;;;;;;5005559;28;20074;-68
2021/04/07 12:56:40;;;;;;;3.55;1.30;;;14.40;62.70;;;;;;5010924;28;20037;-69
2021/04/07 12:59:06;;;;;;;6.95;1.35;;;14.30;66.00;;;;;;5009883;28;20247;-69
2021/04/07 13:01:32;;;;;;;3.65;1.20;;;14.40;66.50;;;;;;5012254;28;20022;-67